BOX545 EBBR-EDDF
Flight info
| Callsign | BOX545 |
|---|---|
| Flight time | N/A |
| Altitude | 23000 |
| Route | SPI T180 NIVNU T847 IMCOM IMCOM1A/25R |
| Aircraft | B77L/H-SDE1E2E3FGHIJ2J3J4J5M1RWXYZ/LB1D1 |
Departure
| Time | N/A |
|---|---|
| Airport | Brussels Airport (EBBR) |
Arrival
| Time | 2026-05-07 08:26 |
|---|---|
| Airport | Frankfurt Main Airport (EDDF) |
| Time | Latitude | Longitude | Altitude | Speed | Heading |
|---|---|---|---|---|---|
| 2026-05-07 08:07 | 50.16705 | 7.45005 | 16192 ft | 365 kts | 109° |
| 2026-05-07 08:08 | 50.15846 | 7.48705 | 15779 ft | 362 kts | 109° |
| 2026-05-07 08:08 | 50.14978 | 7.52388 | 15292 ft | 361 kts | 109° |
| 2026-05-07 08:08 | 50.14107 | 7.56044 | 14851 ft | 359 kts | 109° |
| 2026-05-07 08:08 | 50.13238 | 7.59673 | 14452 ft | 356 kts | 109° |
| 2026-05-07 08:09 | 50.12373 | 7.63267 | 14027 ft | 352 kts | 109° |
| 2026-05-07 08:09 | 50.11769 | 7.66856 | 13955 ft | 338 kts | 96° |
| 2026-05-07 08:09 | 50.11705 | 7.70426 | 13636 ft | 331 kts | 84° |
| 2026-05-07 08:09 | 50.12002 | 7.73950 | 13225 ft | 327 kts | 79° |
| 2026-05-07 08:10 | 50.12361 | 7.77460 | 12752 ft | 327 kts | 79° |
| 2026-05-07 08:10 | 50.12723 | 7.80940 | 12375 ft | 323 kts | 79° |
| 2026-05-07 08:10 | 50.13082 | 7.84390 | 11923 ft | 323 kts | 79° |
| 2026-05-07 08:10 | 50.13438 | 7.87847 | 11492 ft | 322 kts | 79° |
| 2026-05-07 08:11 | 50.13788 | 7.91278 | 11161 ft | 318 kts | 79° |
| 2026-05-07 08:11 | 50.14129 | 7.94667 | 11046 ft | 316 kts | 79° |
| 2026-05-07 08:11 | 50.14474 | 7.98113 | 11017 ft | 328 kts | 80° |
| 2026-05-07 08:11 | 50.14828 | 8.01665 | 11011 ft | 333 kts | 80° |
| 2026-05-07 08:12 | 50.14969 | 8.03081 | 11009 ft | 332 kts | 80° |
| 2026-05-07 08:12 | 50.15256 | 8.05993 | 11009 ft | 333 kts | 80° |
| 2026-05-07 08:12 | 50.15606 | 8.09560 | 11007 ft | 333 kts | 80° |
| 2026-05-07 08:12 | 50.15956 | 8.13136 | 11010 ft | 335 kts | 80° |
| 2026-05-07 08:13 | 50.16308 | 8.16740 | 11008 ft | 337 kts | 80° |
| 2026-05-07 08:13 | 50.16661 | 8.20362 | 11010 ft | 338 kts | 80° |
| 2026-05-07 08:13 | 50.17012 | 8.23988 | 11012 ft | 339 kts | 80° |
| 2026-05-07 08:13 | 50.17363 | 8.27623 | 11005 ft | 339 kts | 80° |
| 2026-05-07 08:14 | 50.17712 | 8.31256 | 11004 ft | 339 kts | 80° |
| 2026-05-07 08:14 | 50.18060 | 8.34893 | 11003 ft | 338 kts | 80° |
| 2026-05-07 08:14 | 50.18407 | 8.38521 | 11003 ft | 338 kts | 80° |
| 2026-05-07 08:14 | 50.18751 | 8.42141 | 11011 ft | 337 kts | 80° |
| 2026-05-07 08:15 | 50.19094 | 8.45750 | 10974 ft | 333 kts | 80° |
| 2026-05-07 08:15 | 50.19419 | 8.49201 | 10704 ft | 310 kts | 80° |
| 2026-05-07 08:15 | 50.19723 | 8.52443 | 10150 ft | 296 kts | 80° |
| 2026-05-07 08:15 | 50.20023 | 8.55635 | 9636 ft | 297 kts | 80° |
| 2026-05-07 08:16 | 50.20320 | 8.58795 | 9324 ft | 291 kts | 80° |
| 2026-05-07 08:16 | 50.20611 | 8.61903 | 8971 ft | 288 kts | 79° |
| 2026-05-07 08:16 | 50.20898 | 8.64979 | 8588 ft | 286 kts | 79° |
| 2026-05-07 08:16 | 50.21182 | 8.68036 | 8207 ft | 284 kts | 79° |
| 2026-05-07 08:17 | 50.21464 | 8.71077 | 7843 ft | 282 kts | 79° |
| 2026-05-07 08:17 | 50.21743 | 8.74092 | 7485 ft | 279 kts | 79° |
| 2026-05-07 08:17 | 50.22019 | 8.77084 | 7108 ft | 278 kts | 79° |
| 2026-05-07 08:17 | 50.22291 | 8.80055 | 6764 ft | 275 kts | 80° |
| 2026-05-07 08:18 | 50.22561 | 8.83003 | 6395 ft | 274 kts | 79° |
| 2026-05-07 08:18 | 50.22830 | 8.85933 | 6010 ft | 272 kts | 80° |
| 2026-05-07 08:18 | 50.23094 | 8.88850 | 5617 ft | 269 kts | 81° |
| 2026-05-07 08:18 | 50.22964 | 8.91736 | 5162 ft | 271 kts | 108° |
| 2026-05-07 08:19 | 50.21936 | 8.94216 | 5019 ft | 278 kts | 137° |
| 2026-05-07 08:19 | 50.20287 | 8.95675 | 4980 ft | 271 kts | 166° |
| 2026-05-07 08:19 | 50.18476 | 8.95957 | 4983 ft | 254 kts | 181° |
| 2026-05-07 08:19 | 50.16766 | 8.95694 | 4973 ft | 243 kts | 200° |
| 2026-05-07 08:20 | 50.15300 | 8.94387 | 4986 ft | 245 kts | 220° |
| 2026-05-07 08:20 | 50.14094 | 8.92575 | 4948 ft | 236 kts | 240° |
| 2026-05-07 08:20 | 50.13376 | 8.90329 | 4992 ft | 233 kts | 251° |
| 2026-05-07 08:20 | 50.12804 | 8.87951 | 4994 ft | 235 kts | 252° |
| 2026-05-07 08:21 | 50.12249 | 8.85568 | 4750 ft | 234 kts | 252° |
| 2026-05-07 08:21 | 50.11696 | 8.83217 | 4440 ft | 229 kts | 252° |
| 2026-05-07 08:21 | 50.11148 | 8.80908 | 4119 ft | 225 kts | 252° |
| 2026-05-07 08:21 | 50.10610 | 8.78646 | 3832 ft | 221 kts | 252° |
| 2026-05-07 08:22 | 50.10082 | 8.76431 | 3572 ft | 214 kts | 252° |
| 2026-05-07 08:22 | 50.09568 | 8.74268 | 3258 ft | 213 kts | 252° |
| 2026-05-07 08:22 | 50.09062 | 8.72146 | 2953 ft | 209 kts | 252° |
| 2026-05-07 08:22 | 50.08564 | 8.70065 | 2655 ft | 194 kts | 252° |
| 2026-05-07 08:23 | 50.08123 | 8.68214 | 2440 ft | 176 kts | 253° |
| 2026-05-07 08:23 | 50.07709 | 8.66480 | 2194 ft | 160 kts | 253° |
| 2026-05-07 08:23 | 50.07349 | 8.64966 | 1981 ft | 144 kts | 253° |
| 2026-05-07 08:23 | 50.07003 | 8.63511 | 1826 ft | 145 kts | 252° |
| 2026-05-07 08:24 | 50.06648 | 8.62022 | 1585 ft | 147 kts | 253° |
| 2026-05-07 08:24 | 50.06300 | 8.60550 | 1398 ft | 143 kts | 253° |
| 2026-05-07 08:24 | 50.05960 | 8.59091 | 1169 ft | 144 kts | 252° |
| 2026-05-07 08:24 | 50.05611 | 8.57644 | 973 ft | 142 kts | 251° |
| 2026-05-07 08:25 | 50.05267 | 8.56215 | 782 ft | 140 kts | 251° |
| 2026-05-07 08:25 | 50.04920 | 8.54784 | 593 ft | 143 kts | 252° |
| 2026-05-07 08:25 | 50.04572 | 8.53340 | 406 ft | 143 kts | 252° |
| 2026-05-07 08:25 | 50.04243 | 8.51957 | 355 ft | 119 kts | 249° |
| 2026-05-07 08:26 | 50.03886 | 8.50509 | 326 ft | 45 kts | 242° |
| 2026-05-07 08:26 | 50.03724 | 8.50230 | 322 ft | 23 kts | 220° |
| 2026-05-07 08:26 | 50.03631 | 8.50275 | 326 ft | 19 kts | 84° |
| 2026-05-07 08:27 | 50.03673 | 8.50469 | 326 ft | 19 kts | 71° |
| 2026-05-07 08:27 | 50.03718 | 8.50663 | 327 ft | 19 kts | 69° |
| 2026-05-07 08:27 | 50.03761 | 8.50857 | 331 ft | 19 kts | 81° |
| 2026-05-07 08:27 | 50.03723 | 8.51057 | 334 ft | 21 kts | 116° |
| 2026-05-07 08:28 | 50.03659 | 8.51258 | 337 ft | 21 kts | 116° |
| 2026-05-07 08:28 | 50.03594 | 8.51464 | 355 ft | 21 kts | 116° |
| 2026-05-07 08:28 | 50.03529 | 8.51667 | 363 ft | 21 kts | 116° |
| 2026-05-07 08:28 | 50.03517 | 8.51888 | 365 ft | 21 kts | 83° |
| 2026-05-07 08:29 | 50.03534 | 8.52110 | 371 ft | 21 kts | 83° |
| 2026-05-07 08:29 | 50.03558 | 8.52333 | 366 ft | 21 kts | 71° |
| 2026-05-07 08:29 | 50.03594 | 8.52541 | 372 ft | 19 kts | 88° |
| 2026-05-07 08:29 | 50.03621 | 8.52728 | 369 ft | 14 kts | 68° |
| 2026-05-07 08:30 | 50.03666 | 8.52815 | 371 ft | 9 kts | 9° |
| 2026-05-07 08:30 | 50.03708 | 8.52791 | 370 ft | 5 kts | 339° |
| 2026-05-07 08:30 | 50.03726 | 8.52781 | 371 ft | 2 kts | 339° |
| 2026-05-07 08:30 | 50.03732 | 8.52778 | 370 ft | 0 kts | 339° |